Langley, Oklahoma
Current Conditions -  °F | °C
As of 8:35 AM on Thursday 27 Nov 2014 (Local Time) from KGMJ Reporting Station
Clear Clear  
Wind Chill: 25°   Ceiling: Unl
Heat Index: 30°   Visibility: 7mi
Dew Point: 27°   Wind: 5mph
Humidity: 86%   Direction: 310°NW
Pressure: 30.57"   Gusts: NA
Location:  36.46°N, 95.05°W
Report Text: KGMJ 271435Z AUTO 31004KT 7SM CLR M01/M03 A3057 RMK AO2
Loading
Personal Weather Stations






























Interactive Weather Map New forecast layout! Learn more

10-Day Weather Forecast

Advertisements
Track Severe Weather on mobile